createdAt,value
2018-11-22T00:01:31.503Z,35.88
2018-11-22T00:04:02.849Z,42.90
2018-11-22T00:06:34.011Z,40.83
2018-11-22T00:09:09.267Z,38.17
2018-11-22T00:11:40.773Z,39.90
2018-11-22T00:14:11.829Z,37.47
2018-11-22T00:16:42.904Z,39.00
2018-11-22T00:19:13.975Z,40.73
2018-11-22T00:21:44.974Z,38.57
2018-11-22T00:24:16.029Z,39.27
2018-11-22T00:26:47.117Z,39.63
2018-11-22T00:29:18.176Z,36.38
2018-11-22T00:31:49.371Z,39.83
2018-11-22T00:34:20.613Z,36.27
2018-11-22T00:36:51.693Z,39.40
2018-11-22T00:39:22.858Z,37.70
2018-11-22T00:41:53.840Z,39.40
2018-11-22T00:44:24.894Z,37.40
2018-11-22T00:46:55.954Z,36.27
2018-11-22T00:49:27.123Z,37.87
2018-11-22T00:51:58.279Z,40.23
2018-11-22T00:54:29.422Z,41.30
2018-11-22T00:57:00.479Z,41.30
2018-11-22T00:59:31.570Z,41.13
2018-11-22T01:02:02.787Z,39.97
2018-11-22T01:04:33.727Z,43.13
2018-11-22T01:07:04.917Z,37.70
2018-11-22T01:09:36.006Z,40.43
2018-11-22T01:12:07.345Z,43.13
2018-11-22T01:14:38.311Z,39.80
2018-11-22T01:17:09.437Z,38.17
2018-11-22T01:19:41.836Z,42.60
2018-11-22T01:22:13.016Z,37.05
2018-11-22T01:24:44.160Z,38.27
2018-11-22T01:27:15.345Z,38.30
2018-11-22T01:29:46.486Z,43.13
2018-11-22T01:32:17.741Z,40.63
2018-11-22T01:34:48.915Z,41.47
2018-11-22T01:37:21.186Z,35.63
2018-11-22T01:39:52.407Z,39.87
2018-11-22T01:42:23.625Z,38.83
2018-11-22T01:44:54.920Z,37.43
2018-11-22T01:47:26.232Z,41.20
2018-11-22T01:49:57.511Z,44.40
2018-11-22T01:52:28.738Z,41.50
2018-11-22T01:55:00.085Z,38.30
2018-11-22T01:57:31.249Z,43.10
2018-11-22T02:00:02.476Z,41.93
2018-11-22T02:02:33.658Z,39.77
2018-11-22T02:05:05.062Z,39.90
2018-11-22T02:07:36.246Z,41.73
2018-11-22T02:10:09.888Z,37.23
2018-11-22T02:12:41.262Z,35.93
2018-11-22T02:15:31.177Z,38.33
2018-11-22T02:18:02.408Z,36.38
2018-11-22T02:20:33.596Z,36.60
2018-11-22T02:23:04.815Z,36.03
2018-11-22T02:25:37.343Z,35.63
2018-11-22T02:28:09.367Z,38.17
2018-11-22T02:30:40.564Z,34.47
2018-11-22T02:33:11.869Z,38.63
2018-11-22T02:35:43.099Z,37.53
2018-11-22T02:38:14.402Z,34.13
2018-11-22T02:40:45.586Z,34.85
2018-11-22T02:43:16.774Z,35.23
2018-11-22T02:45:48.038Z,32.53
2018-11-22T02:48:19.223Z,34.73
2018-11-22T02:50:50.497Z,35.40
2018-11-22T02:53:21.705Z,34.27
2018-11-22T02:55:52.879Z,34.13
2018-11-22T02:58:24.154Z,33.25
2018-11-22T03:00:55.361Z,34.80
2018-11-22T03:03:26.633Z,37.30
2018-11-22T03:05:57.876Z,36.83
2018-11-22T03:08:29.146Z,34.03
2018-11-22T03:11:00.363Z,34.90
2018-11-22T03:13:31.543Z,34.43
2018-11-22T03:16:02.834Z,35.60
2018-11-22T03:18:34.190Z,37.60
2018-11-22T03:21:05.465Z,36.43
2018-11-22T03:23:36.672Z,37.33
2018-11-22T03:26:08.043Z,33.80
2018-11-22T03:28:39.226Z,36.20
2018-11-22T03:31:10.426Z,36.50
2018-11-22T03:33:41.642Z,36.00
2018-11-22T03:36:14.077Z,37.87
2018-11-22T03:38:45.259Z,38.83
2018-11-22T03:41:16.425Z,38.90
2018-11-22T03:43:47.523Z,39.03
2018-11-22T03:46:18.699Z,44.73
2018-11-22T03:48:49.875Z,44.37
2018-11-22T03:51:21.029Z,39.47
2018-11-22T03:53:53.445Z,42.90
2018-11-22T03:56:24.622Z,38.87
2018-11-22T03:58:55.809Z,69.47
2018-11-22T04:01:27.119Z,42.17
2018-11-22T04:03:58.446Z,90.50
2018-11-22T04:06:29.617Z,64.37
2018-11-22T04:09:00.948Z,51.63
2018-11-22T04:11:33.074Z,70.65
2018-11-22T04:14:04.249Z,70.10
2018-11-22T04:16:35.433Z,228.27
2018-11-22T04:19:06.740Z,40.63
2018-11-22T04:21:43.452Z,37.75
2018-11-22T04:24:15.082Z,37.67
2018-11-22T04:26:46.307Z,33.03
2018-11-22T04:29:17.529Z,34.67
2018-11-22T04:31:48.831Z,35.17
2018-11-22T04:34:20.009Z,34.03
2018-11-22T04:36:51.192Z,34.23
2018-11-22T04:39:22.398Z,35.20
2018-11-22T04:41:53.715Z,34.73
2018-11-22T04:44:24.937Z,31.85
2018-11-22T04:46:56.172Z,35.50
2018-11-22T04:49:27.738Z,31.95
2018-11-22T04:51:58.907Z,32.70
2018-11-22T04:54:30.183Z,36.10
2018-11-22T04:57:01.425Z,32.93
2018-11-22T04:59:32.782Z,30.50
2018-11-22T05:02:04.066Z,33.23
2018-11-22T05:04:36.508Z,31.63
2018-11-22T05:07:07.981Z,33.97
2018-11-22T05:09:39.073Z,34.47
2018-11-22T05:12:10.395Z,33.98
2018-11-22T05:14:41.595Z,30.70
2018-11-22T05:17:12.781Z,29.43
2018-11-22T05:19:43.980Z,29.85
2018-11-22T05:22:15.198Z,30.70
2018-11-22T05:24:47.053Z,30.55
2018-11-22T05:27:18.245Z,29.50
2018-11-22T05:29:49.470Z,27.07
2018-11-22T05:32:20.681Z,31.03
2018-11-22T05:34:51.804Z,28.73
2018-11-22T05:37:23.077Z,27.60
2018-11-22T05:39:54.288Z,32.50
2018-11-22T05:42:25.997Z,28.77
2018-11-22T05:44:57.199Z,28.93
2018-11-22T05:47:28.304Z,32.47
2018-11-22T05:49:59.689Z,28.83
2018-11-22T05:52:30.876Z,28.07
2018-11-22T05:55:02.169Z,29.77
2018-11-22T05:57:33.404Z,29.53
2018-11-22T06:00:05.292Z,31.12
2018-11-22T06:02:36.499Z,30.53
2018-11-22T06:05:09.011Z,30.93
2018-11-22T06:07:40.297Z,30.40
2018-11-22T06:10:15.264Z,28.47
2018-11-22T06:12:46.683Z,29.45
2018-11-22T06:15:18.122Z,29.70
2018-11-22T06:17:49.946Z,29.40
2018-11-22T06:20:22.642Z,26.97
2018-11-22T06:22:55.592Z,33.00
2018-11-22T06:25:26.815Z,30.37
2018-11-22T06:27:58.495Z,29.52
2018-11-22T06:30:31.238Z,30.52
2018-11-22T06:33:03.425Z,29.70
2018-11-22T06:35:34.873Z,28.55
2018-11-22T06:38:06.105Z,29.50
2018-11-22T06:40:37.316Z,27.02
2018-11-22T06:43:08.555Z,31.30
2018-11-22T06:45:39.748Z,30.93
2018-11-22T06:48:10.950Z,36.23
2018-11-22T06:50:42.225Z,33.07
2018-11-22T06:53:13.450Z,35.95
2018-11-22T06:55:47.849Z,31.20
2018-11-22T06:58:15.920Z,33.20
2018-11-22T07:00:47.225Z,31.30
2018-11-22T07:03:18.531Z,33.87
2018-11-22T07:05:49.811Z,35.97
2018-11-22T07:08:21.100Z,37.53
2018-11-22T07:10:52.290Z,63.15
2018-11-22T07:13:23.616Z,47.20
2018-11-22T07:15:54.922Z,48.23
2018-11-22T07:18:27.292Z,51.35
2018-11-22T07:20:58.512Z,38.43
2018-11-22T07:23:29.747Z,37.80
2018-11-22T07:26:00.958Z,38.57
2018-11-22T07:28:32.169Z,47.33
2018-11-22T07:31:03.371Z,46.57
2018-11-22T07:33:38.264Z,43.53
2018-11-22T07:36:05.734Z,43.40
2018-11-22T07:38:36.871Z,32.07
2018-11-22T07:41:08.223Z,36.70
2018-11-22T07:43:39.514Z,27.93
2018-11-22T07:46:10.750Z,31.27
2018-11-22T07:48:41.954Z,33.03
2018-11-22T07:51:13.170Z,28.30
2018-11-22T07:53:45.404Z,36.25
2018-11-22T07:56:16.584Z,31.97
2018-11-22T07:58:47.771Z,33.03
2018-11-22T08:01:19.027Z,31.20
2018-11-22T08:03:50.283Z,30.30
2018-11-22T08:06:21.498Z,34.03
2018-11-22T08:08:52.686Z,28.63
2018-11-22T08:11:24.365Z,28.30
2018-11-22T08:13:55.672Z,36.37
2018-11-22T08:16:26.854Z,31.67
2018-11-22T08:18:58.067Z,34.10
2018-11-22T08:21:29.264Z,30.77
2018-11-22T08:24:00.493Z,28.63
2018-11-22T08:26:31.804Z,33.20
2018-11-22T08:29:04.230Z,28.87
2018-11-22T08:31:35.506Z,24.97
2018-11-22T08:34:06.802Z,25.43
2018-11-22T08:36:38.013Z,27.55
2018-11-22T08:39:11.377Z,24.93
2018-11-22T08:44:13.137Z,24.57
2018-11-22T08:46:44.387Z,23.67
2018-11-22T08:49:15.600Z,23.07
2018-11-22T08:51:46.808Z,20.47
2018-11-22T08:54:17.996Z,21.43
2018-11-22T08:56:49.324Z,20.40
2018-11-22T08:59:20.528Z,21.37
2018-11-22T09:01:51.751Z,22.70
2018-11-22T09:06:53.322Z,19.53
2018-11-22T09:09:24.597Z,19.83
2018-11-22T09:11:55.772Z,19.43
2018-11-22T09:14:27.070Z,18.87
2018-11-22T09:16:58.335Z,20.60
2018-11-22T09:19:29.541Z,18.50
2018-11-22T09:22:01.384Z,16.12
2018-11-22T09:24:32.568Z,18.10
2018-11-22T09:27:03.794Z,16.47
2018-11-22T09:29:39.497Z,16.00
2018-11-22T09:32:07.279Z,19.07
2018-11-22T09:34:38.492Z,18.33
2018-11-22T09:37:09.746Z,18.93
2018-11-22T09:39:41.168Z,16.52
2018-11-22T09:42:12.665Z,16.70
2018-11-22T09:44:43.928Z,19.03
2018-11-22T09:47:15.120Z,17.50
2018-11-22T09:49:46.356Z,18.50
2018-11-22T09:52:17.539Z,19.27
2018-11-22T09:54:48.761Z,22.07
2018-11-22T09:57:19.979Z,19.87
2018-11-22T09:59:51.196Z,21.03
2018-11-22T10:02:22.391Z,18.63
2018-11-22T10:04:53.795Z,19.63
2018-11-22T10:07:25.167Z,16.97
2018-11-22T10:09:56.441Z,20.70
2018-11-22T10:12:27.824Z,16.93
2018-11-22T10:14:59.540Z,17.63
2018-11-22T10:17:30.721Z,17.40
2018-11-22T10:20:01.897Z,14.43
2018-11-22T10:22:33.223Z,20.50
2018-11-22T10:25:04.565Z,17.13
2018-11-22T10:27:35.783Z,19.27
2018-11-22T10:30:14.839Z,18.73
2018-11-22T10:32:53.136Z,16.03
2018-11-22T10:35:25.838Z,16.43
2018-11-22T10:37:57.376Z,18.50
2018-11-22T10:40:28.945Z,13.53
2018-11-22T10:45:34.788Z,12.63
2018-11-22T10:48:08.003Z,11.57
2018-11-22T10:50:39.369Z,11.53
2018-11-22T10:53:10.545Z,13.40
2018-11-22T10:55:43.264Z,11.53
2018-11-22T10:58:14.351Z,11.60
2018-11-22T11:01:02.695Z,13.23
2018-11-22T11:03:43.013Z,13.13
2018-11-22T11:06:31.809Z,12.17
2018-11-22T11:09:03.140Z,13.80
2018-11-22T11:11:34.282Z,13.90
2018-11-22T11:14:05.476Z,12.77
2018-11-22T11:16:36.654Z,11.47
2018-11-22T11:19:07.976Z,14.17
2018-11-22T11:21:39.145Z,14.13
2018-11-22T11:24:10.320Z,15.97
2018-11-22T11:26:41.403Z,11.80
2018-11-22T11:29:12.842Z,12.83
2018-11-22T11:31:44.242Z,12.10
2018-11-22T11:34:15.400Z,13.83
2018-11-22T11:36:46.473Z,13.03
2018-11-22T11:39:17.567Z,12.27
2018-11-22T11:41:48.726Z,12.23
2018-11-22T11:44:19.912Z,13.80
2018-11-22T11:46:51.088Z,11.53
2018-11-22T11:49:22.910Z,11.82
2018-11-22T11:51:54.113Z,12.90
2018-11-22T11:54:25.093Z,11.67
2018-11-22T11:56:56.270Z,12.18
2018-11-22T11:59:27.414Z,11.90
2018-11-22T12:01:58.513Z,13.17
2018-11-22T12:04:29.683Z,13.70
2018-11-22T12:07:01.790Z,13.65
2018-11-22T12:09:32.849Z,13.13
2018-11-22T12:12:03.913Z,14.07
2018-11-22T12:14:35.013Z,13.87
2018-11-22T12:17:06.121Z,14.73
2018-11-22T12:19:37.243Z,13.13
2018-11-22T12:22:08.573Z,14.23
2018-11-22T12:24:41.000Z,13.83
2018-11-22T12:27:12.096Z,12.53
2018-11-22T12:29:43.163Z,13.90
2018-11-22T12:32:31.182Z,14.80
2018-11-22T12:35:39.561Z,13.68
2018-11-22T12:38:27.664Z,14.03
2018-11-22T12:40:58.814Z,15.70
2018-11-22T12:43:30.034Z,14.73
2018-11-22T12:46:01.160Z,15.40
2018-11-22T12:48:32.467Z,13.70
2018-11-22T12:51:03.662Z,14.30
2018-11-22T12:53:34.656Z,14.17
2018-11-22T12:56:05.923Z,14.68
2018-11-22T12:58:37.362Z,15.27
2018-11-22T13:01:08.844Z,14.00
2018-11-22T13:03:40.041Z,11.97
2018-11-22T13:06:11.461Z,15.68
2018-11-22T13:08:42.638Z,13.47
2018-11-22T13:11:13.835Z,16.03
2018-11-22T13:13:45.237Z,13.70
2018-11-22T13:16:16.506Z,11.97
2018-11-22T13:18:47.735Z,11.83
2018-11-22T13:21:18.937Z,12.77
2018-11-22T13:23:50.363Z,12.33
2018-11-22T13:26:21.575Z,13.70
2018-11-22T13:28:52.858Z,13.57
2018-11-22T13:31:24.034Z,13.27
2018-11-22T13:33:55.224Z,12.70
2018-11-22T13:36:26.445Z,11.88
2018-11-22T13:38:57.640Z,10.37
2018-11-22T13:41:29.309Z,11.18
2018-11-22T13:44:00.517Z,13.67
2018-11-22T13:46:31.697Z,8.53
2018-11-22T13:49:02.893Z,16.17
2018-11-22T13:51:34.146Z,10.57
2018-11-22T13:54:05.329Z,9.45
2018-11-22T13:56:36.614Z,8.93
2018-11-22T13:59:58.164Z,9.20
2018-11-22T14:02:22.234Z,8.73
2018-11-22T14:04:51.547Z,10.63
2018-11-22T14:07:20.891Z,9.80
2018-11-22T14:09:50.210Z,15.60
2018-11-22T14:12:19.542Z,14.77
2018-11-22T14:14:48.871Z,16.73
2018-11-22T14:17:18.210Z,17.40
2018-11-22T14:19:47.509Z,18.47
2018-11-22T14:22:16.751Z,20.90
2018-11-22T14:24:46.041Z,20.20
2018-11-22T14:27:15.320Z,20.77
2018-11-22T14:29:44.691Z,17.80
2018-11-22T14:32:14.043Z,19.67
2018-11-22T14:34:43.382Z,18.43
2018-11-22T14:37:12.812Z,21.23
2018-11-22T14:39:42.179Z,19.40
2018-11-22T14:42:11.508Z,18.23
2018-11-22T14:44:40.888Z,18.73
2018-11-22T14:47:10.258Z,22.97
2018-11-22T14:49:39.612Z,18.77
2018-11-22T14:52:09.050Z,20.80
2018-11-22T14:54:38.424Z,21.55
2018-11-22T14:57:07.829Z,18.97
2018-11-22T14:59:37.199Z,19.63
2018-11-22T15:02:06.586Z,20.07
2018-11-22T15:04:35.921Z,22.87
2018-11-22T15:07:05.410Z,18.70
2018-11-22T15:09:34.754Z,19.70
2018-11-22T15:12:04.082Z,20.40
2018-11-22T15:14:33.421Z,21.33
2018-11-22T15:17:02.746Z,22.07
2018-11-22T15:19:32.110Z,20.50
2018-11-22T15:22:01.415Z,19.80
2018-11-22T15:24:30.722Z,19.97
2018-11-22T15:27:00.040Z,21.17
2018-11-22T15:29:29.327Z,20.72
2018-11-22T15:31:59.010Z,19.77
2018-11-22T15:34:28.327Z,20.20
2018-11-22T15:36:57.691Z,21.83
2018-11-22T15:39:27.043Z,20.03
2018-11-22T15:41:56.362Z,18.20
2018-11-22T15:44:25.698Z,21.20
2018-11-22T15:46:55.023Z,19.57
2018-11-22T15:49:24.379Z,22.13
2018-11-22T15:51:53.720Z,19.45
2018-11-22T15:54:23.068Z,20.30
2018-11-22T15:56:52.379Z,20.10
2018-11-22T15:59:21.747Z,23.87
2018-11-22T16:01:51.371Z,20.77
2018-11-22T16:04:20.703Z,20.88
2018-11-22T16:06:50.083Z,22.63
2018-11-22T16:09:19.735Z,21.40
2018-11-22T16:11:49.103Z,22.67
2018-11-22T16:14:18.430Z,22.57
2018-11-22T16:16:47.806Z,22.13
2018-11-22T16:19:17.143Z,20.97
2018-11-22T16:21:46.525Z,22.87
2018-11-22T16:24:15.884Z,22.13
2018-11-22T16:26:45.235Z,21.23
2018-11-22T16:29:14.606Z,23.55
2018-11-22T16:31:43.938Z,24.53
2018-11-22T16:34:13.299Z,24.73
2018-11-22T16:36:42.651Z,25.00
2018-11-22T16:39:12.036Z,26.37
2018-11-22T16:41:41.358Z,22.73
2018-11-22T16:44:10.687Z,22.55
2018-11-22T16:46:40.294Z,23.73
2018-11-22T16:49:09.627Z,24.60
2018-11-22T16:51:38.944Z,25.43
2018-11-22T16:54:08.288Z,26.33
2018-11-22T16:56:37.640Z,25.33
2018-11-22T16:59:07.023Z,26.93
2018-11-22T17:01:36.344Z,23.43
2018-11-22T17:04:05.995Z,21.60
2018-11-22T17:06:35.350Z,22.67
2018-11-22T17:09:06.386Z,23.73
2018-11-22T17:11:36.467Z,22.73
2018-11-22T17:14:06.616Z,22.13
2018-11-22T17:16:36.136Z,22.00
2018-11-22T17:19:05.463Z,24.43
2018-11-22T17:21:35.106Z,23.97
2018-11-22T17:24:04.883Z,23.67
2018-11-22T17:26:34.261Z,20.97
2018-11-22T17:29:03.618Z,20.57
2018-11-22T17:31:33.140Z,22.17
2018-11-22T17:34:02.496Z,21.10
2018-11-22T17:36:32.868Z,20.05
2018-11-22T17:39:02.466Z,25.23
2018-11-22T17:41:31.880Z,24.13
2018-11-22T17:44:01.228Z,21.50
2018-11-22T17:46:30.597Z,26.07
2018-11-22T17:49:01.234Z,26.07
2018-11-22T17:51:30.563Z,23.60
2018-11-22T17:54:00.012Z,25.02
2018-11-22T17:56:29.663Z,24.80
2018-11-22T17:58:59.030Z,23.40
2018-11-22T18:01:29.683Z,22.63
2018-11-22T18:03:59.064Z,23.80
2018-11-22T18:06:28.682Z,22.58
2018-11-22T18:08:58.071Z,25.47
2018-11-22T18:11:27.411Z,25.63
2018-11-22T18:18:55.176Z,26.17
2018-11-22T18:21:24.520Z,24.20
2018-11-22T18:23:53.936Z,26.30
2018-11-22T18:26:23.318Z,26.83
2018-11-22T18:28:52.740Z,26.40
2018-11-22T18:31:22.074Z,27.10
2018-11-22T18:33:51.459Z,29.30
2018-11-22T18:36:22.119Z,26.00
2018-11-22T18:38:54.495Z,31.37
2018-11-22T18:41:23.847Z,32.75
2018-11-22T18:43:53.190Z,30.43
2018-11-22T18:46:22.572Z,28.98
2018-11-22T18:48:51.987Z,27.10
2018-11-22T18:51:21.322Z,27.87
2018-11-22T18:53:50.716Z,27.83
2018-11-22T18:56:20.095Z,28.67
2018-11-22T18:58:49.450Z,28.47
2018-11-22T19:01:18.815Z,30.10
2018-11-22T19:03:48.174Z,30.00
2018-11-22T19:06:17.516Z,29.83
2018-11-22T19:08:47.143Z,29.63
2018-11-22T19:11:16.470Z,31.37
2018-11-22T19:13:45.802Z,29.93
2018-11-22T19:16:15.155Z,27.50
2018-11-22T19:18:44.513Z,29.03
2018-11-22T19:21:13.886Z,39.33
2018-11-22T19:23:43.230Z,35.67
2018-11-22T19:26:12.586Z,32.63
2018-11-22T19:28:42.044Z,30.77
2018-11-22T19:31:11.423Z,27.75
2018-11-22T19:33:40.781Z,28.40
2018-11-22T19:36:10.171Z,28.17
2018-11-22T19:38:39.535Z,26.03
2018-11-22T19:41:08.903Z,26.27
2018-11-22T19:43:38.251Z,25.90
2018-11-22T19:46:07.647Z,26.73
2018-11-22T19:48:36.970Z,24.73
2018-11-22T19:51:06.504Z,29.10
2018-11-22T19:53:35.882Z,28.53
2018-11-22T19:56:05.259Z,27.97
2018-11-22T19:58:34.624Z,26.50
2018-11-22T20:01:07.749Z,27.33
2018-11-22T20:03:33.460Z,28.40
2018-11-22T20:06:02.780Z,30.43
2018-11-22T20:08:32.141Z,27.93
2018-11-22T20:11:01.498Z,45.07
2018-11-22T20:13:30.899Z,30.33
2018-11-22T20:16:00.243Z,26.43
2018-11-22T20:18:29.600Z,29.37
2018-11-22T20:20:58.983Z,30.03
2018-11-22T20:23:28.334Z,29.77
2018-11-22T20:25:57.755Z,27.90
2018-11-22T20:28:27.097Z,30.63
2018-11-22T20:30:56.463Z,29.18
2018-11-22T20:35:52.451Z,25.87
2018-11-22T20:38:21.811Z,25.30
2018-11-22T20:40:57.258Z,26.23
2018-11-22T20:43:21.936Z,27.43
2018-11-22T20:45:51.282Z,33.58
2018-11-22T20:48:20.899Z,29.13
2018-11-22T20:50:50.227Z,29.30
2018-11-22T20:53:19.608Z,28.77
2018-11-22T20:55:48.991Z,29.33
2018-11-22T20:58:18.400Z,26.73
2018-11-22T21:00:47.776Z,27.57
2018-11-22T21:03:17.123Z,28.07
2018-11-22T21:05:46.467Z,28.87
2018-11-22T21:08:15.814Z,28.13
2018-11-22T21:10:45.201Z,26.67
2018-11-22T21:13:14.537Z,27.00
2018-11-22T21:15:43.955Z,25.60
2018-11-22T21:18:13.312Z,25.23
2018-11-22T21:20:42.813Z,31.60
2018-11-22T21:23:12.442Z,28.73
2018-11-22T21:25:41.762Z,29.10
2018-11-22T21:28:11.077Z,31.87
2018-11-22T21:30:40.881Z,26.83
2018-11-22T21:33:10.209Z,28.30
2018-11-22T21:35:39.591Z,28.17
2018-11-22T21:38:09.410Z,29.40
2018-11-22T21:40:39.955Z,32.20
2018-11-22T21:43:09.319Z,32.47
2018-11-22T21:45:38.727Z,33.03
2018-11-22T21:48:08.115Z,27.23
2018-11-22T21:50:37.513Z,26.53
2018-11-22T21:53:08.418Z,30.20
2018-11-22T21:55:37.795Z,39.73
2018-11-22T21:58:07.174Z,39.27
2018-11-22T22:00:39.355Z,49.83
2018-11-22T22:03:10.272Z,56.10
2018-11-22T22:05:40.210Z,59.50
2018-11-22T22:08:09.610Z,61.00
2018-11-22T22:10:38.991Z,67.07
2018-11-22T22:13:08.402Z,70.90
2018-11-22T22:15:38.222Z,59.63
2018-11-22T22:18:08.852Z,89.50
2018-11-22T22:20:38.426Z,149.30
2018-11-22T22:23:13.188Z,122.17
2018-11-22T22:25:37.330Z,103.90
2018-11-22T22:28:06.645Z,138.10
2018-11-22T22:30:36.085Z,94.88
2018-11-22T22:33:06.674Z,85.53
2018-11-22T22:35:36.094Z,81.67
2018-11-22T22:38:05.568Z,68.90
2018-11-22T22:40:41.232Z,66.03
2018-11-22T22:43:10.603Z,54.77
2018-11-22T22:45:39.925Z,50.55
2018-11-22T22:48:10.066Z,74.22
2018-11-22T22:50:39.431Z,61.50
2018-11-22T22:53:08.816Z,57.43
2018-11-22T22:55:38.152Z,60.83
2018-11-22T22:58:07.561Z,62.30
2018-11-22T23:00:41.213Z,56.93
2018-11-22T23:03:10.622Z,105.50
2018-11-22T23:05:40.024Z,111.55
2018-11-22T23:08:09.416Z,96.17
2018-11-22T23:10:38.784Z,100.73
2018-11-22T23:13:08.395Z,97.00
2018-11-22T23:15:37.758Z,91.47
2018-11-22T23:18:07.189Z,101.97
2018-11-22T23:20:37.597Z,107.43
2018-11-22T23:23:06.967Z,82.97
2018-11-22T23:25:36.314Z,89.83
2018-11-22T23:28:05.708Z,72.13
2018-11-22T23:30:35.810Z,87.57
2018-11-22T23:33:06.520Z,125.83
2018-11-22T23:35:35.940Z,128.63
2018-11-22T23:38:05.376Z,85.97
2018-11-22T23:40:36.048Z,101.27
2018-11-22T23:43:06.198Z,228.47
2018-11-22T23:45:35.155Z,127.27
2018-11-22T23:48:04.596Z,112.10
2018-11-22T23:50:34.428Z,117.28
2018-11-22T23:53:04.763Z,114.37
2018-11-22T23:55:34.139Z,104.37
2018-11-22T23:58:03.478Z,99.50
